Time;durP1;ratioP1;P1;durP2;ratioP2;P2;SDS_P1;SDS_P2;PMS_P1;PMS_P2;Temp;Humidity;BMP_temperature;BMP_pressure;BME280_temperature;BME280_humidity;BME280_pressure;Samples;Min_cycle;Max_cycle;Signal;HPM_P1;HPM_P2
2022/08/20 00:00:14;;;;;;;16.80;11.63;;;;;;;25.41;57.71;98545.88;4898322;29;20203;-89
2022/08/20 00:02:45;;;;;;;15.25;11.00;;;;;;;24.70;57.47;98451.22;4898068;29;20182;-88
2022/08/20 00:05:12;;;;;;;14.30;11.23;;;;;;;25.53;57.68;98588.78;4881209;29;20678;-89
2022/08/20 00:07:37;;;;;;;15.13;10.93;;;;;;;25.08;56.95;98503.66;4885328;29;20278;-89
2022/08/20 00:10:05;;;;;;;15.55;11.40;;;;;;;23.31;56.63;98194.72;4899742;29;20179;-88
2022/08/20 00:12:31;;;;;;;16.88;11.25;;;;;;;26.47;58.01;98729.47;4901324;29;20627;-88
2022/08/20 00:14:57;;;;;;;16.77;11.15;;;;;;;24.16;58.30;98366.50;4916963;29;20367;-90
2022/08/20 00:17:22;;;;;;;14.77;10.85;;;;;;;24.85;57.57;98503.47;4916378;29;20604;-89
2022/08/20 00:19:48;;;;;;;17.40;11.32;;;;;;;24.52;58.77;98463.81;4916175;29;20629;-90
2022/08/20 00:22:13;;;;;;;13.75;11.48;;;;;;;24.63;59.54;98441.06;4899466;29;20181;-89
2022/08/20 00:24:39;;;;;;;16.45;11.35;;;;;;;23.31;58.91;98229.13;4898918;29;20710;-89
2022/08/20 00:27:04;;;;;;;13.50;11.38;;;;;;;22.97;58.25;98161.16;4916193;29;20183;-89
2022/08/20 00:29:30;;;;;;;15.70;11.60;;;;;;;24.44;59.43;98442.47;4899264;29;20680;-89
2022/08/20 00:31:55;;;;;;;16.33;11.27;;;;;;;26.31;59.73;98746.44;4899095;29;20176;-88
2022/08/20 00:34:21;;;;;;;18.92;11.93;;;;;;;25.14;60.95;98570.00;4915569;29;20210;-89
2022/08/20 00:36:46;;;;;;;15.32;11.75;;;;;;;23.54;60.84;98326.72;4899094;29;20183;-89
2022/08/20 00:39:12;;;;;;;13.90;11.40;;;;;;;24.62;61.21;98490.28;4916285;29;20175;-88
2022/08/20 00:41:37;;;;;;;14.32;11.40;;;;;;;26.07;61.37;98766.09;4916134;29;20641;-89
2022/08/20 00:44:16;;;;;;;17.45;11.77;;;;;;;25.72;61.21;98701.41;4900980;29;20242;-89
2022/08/20 00:46:42;;;;;;;14.27;11.70;;;;;;;25.38;61.24;98647.03;4902251;29;20743;-89
2022/08/20 00:49:16;;;;;;;15.05;11.63;;;;;;;24.00;61.15;98410.00;4924653;29;20206;-89
2022/08/20 00:51:46;;;;;;;18.50;12.13;;;;;;;24.82;61.09;98534.63;4908687;29;20185;-89
2022/08/20 00:54:20;;;;;;;19.00;12.57;;;;;;;24.39;61.35;98490.06;4899545;29;20205;-88
2022/08/20 00:57:14;;;;;;;17.40;11.97;;;;;;;23.85;61.90;98428.47;4898243;29;20634;-89
2022/08/20 00:59:41;;;;;;;16.00;12.37;;;;;;;23.60;62.79;98398.06;4838169;29;20295;-88
2022/08/20 01:02:11;;;;;;;14.20;11.77;;;;;;;24.69;63.81;98613.50;4838393;29;20673;-88
2022/08/20 01:04:36;;;;;;;14.93;12.17;;;;;;;22.29;64.31;98227.28;4823195;29;20200;-88
2022/08/20 01:07:04;;;;;;;17.20;12.80;;;;;;;25.57;63.82;98767.50;4838683;29;20560;-89
2022/08/20 01:09:30;;;;;;;17.33;12.60;;;;;;;24.75;63.46;98602.97;4838593;29;20220;-87
2022/08/20 01:11:56;;;;;;;20.77;13.23;;;;;;;22.96;63.14;98319.53;4823140;29;20271;-89
2022/08/20 01:17:03;;;;;;;17.20;13.37;;;;;;;25.48;63.54;98747.03;4838492;29;20588;-89
2022/08/20 01:19:34;;;;;;;16.77;13.13;;;;;;;23.86;62.85;98458.59;4823732;29;20654;-89
2022/08/20 01:23:25;;;;;;;17.10;12.53;;;;;;;24.21;63.09;98506.88;4838987;29;20169;-88
2022/08/20 01:24:54;;;;;;;21.67;13.13;;;;;;;23.22;63.35;98352.47;4838858;29;20179;-89
2022/08/20 01:27:21;;;;;;;17.63;13.67;;;;;;;22.70;62.75;98299.47;4839236;29;20210;-88
2022/08/20 01:29:47;;;;;;;20.53;14.37;;;;;;;22.03;63.04;98190.91;4845384;29;20249;-88
2022/08/20 01:32:13;;;;;;;18.13;13.93;;;;;;;23.02;63.66;98339.19;4859315;29;20224;-88
2022/08/20 01:34:38;;;;;;;18.80;14.00;;;;;;;23.22;64.25;98398.97;4864309;29;20200;-86
2022/08/20 01:37:04;;;;;;;24.30;13.00;;;;;;;25.31;64.76;98741.41;4905945;29;20206;-89
2022/08/20 01:39:33;;;;;;;18.57;13.20;;;;;;;21.69;64.12;98127.16;4922586;29;20246;-89
2022/08/20 01:42:07;;;;;;;17.23;13.57;;;;;;;25.33;64.33;98737.03;4924246;29;20185;-89
2022/08/20 01:44:34;;;;;;;17.23;13.20;;;;;;;22.74;64.14;98310.59;4902669;29;20193;-88
2022/08/20 01:47:18;;;;;;;18.13;13.70;;;;;;;21.71;64.25;98158.03;4901786;29;20206;-89
2022/08/20 01:49:48;;;;;;;17.50;13.40;;;;;;;23.07;64.44;98392.44;4904356;29;20181;-89
2022/08/20 01:52:32;;;;;;;16.93;13.57;;;;;;;23.36;64.64;98457.19;4921708;29;21263;-89
2022/08/20 01:54:58;;;;;;;16.77;14.07;;;;;;;23.18;64.78;98436.94;4918217;29;20236;-89
2022/08/20 01:57:28;;;;;;;18.53;13.87;;;;;;;25.06;65.13;98748.94;4905989;29;20530;-88
2022/08/20 01:59:54;;;;;;;19.83;14.07;;;;;;;22.89;65.67;98445.28;4924162;29;20197;-90
2022/08/20 02:02:20;;;;;;;18.47;13.33;;;;;;;23.36;66.87;98533.81;4902342;29;20213;-88
2022/08/20 02:04:46;;;;;;;20.07;14.00;;;;;;;22.09;67.60;98376.34;4907140;29;20200;-89
2022/08/20 02:07:16;;;;;;;19.20;13.60;;;;;;;22.38;70.41;98473.81;4911756;29;20639;-89
2022/08/20 02:09:43;;;;;;;17.97;13.80;;;;;;;21.06;70.54;98272.53;4908062;29;20182;-88
2022/08/20 02:12:10;;;;;;;20.37;14.50;;;;;;;20.66;72.35;98250.88;4904240;29;20178;-89
2022/08/20 02:14:44;;;;;;;19.57;14.03;;;;;;;20.21;71.61;98147.81;4897908;29;20221;-89
2022/08/20 02:17:11;;;;;;;19.00;14.00;;;;;;;23.93;71.31;98765.25;4899257;29;20184;-89
2022/08/20 02:19:45;;;;;;;19.03;13.77;;;;;;;21.53;70.18;98329.25;4900624;29;20186;-89
2022/08/20 02:22:46;;;;;;;18.83;13.90;;;;;;;22.41;69.45;98460.88;4900727;29;20669;-89
2022/08/20 02:25:14;;;;;;;19.40;13.93;;;;;;;20.76;69.02;98183.81;4899692;29;20185;-89
2022/08/20 02:27:41;;;;;;;18.80;14.67;;;;;;;21.01;67.68;98181.69;4915100;29;20167;-89
2022/08/20 02:30:11;;;;;;;20.17;14.83;;;;;;;24.34;66.94;98745.44;4917674;29;20210;-89
2022/08/20 02:32:41;;;;;;;18.67;15.23;;;;;;;24.29;66.81;98747.28;4900205;29;20643;-89
2022/08/20 02:35:09;;;;;;;20.20;15.60;;;;;;;23.58;66.64;98638.44;4917021;29;20205;-89
2022/08/20 02:37:36;;;;;;;21.80;14.93;;;;;;;22.84;66.70;98497.88;4900601;29;20274;-88
2022/08/20 02:40:06;;;;;;;21.53;14.27;;;;;;;20.66;67.25;98130.00;4900655;29;20655;-87
2022/08/20 02:42:33;;;;;;;17.33;14.27;;;;;;;20.81;69.81;98181.16;4900147;29;20174;-88
2022/08/20 02:44:59;;;;;;;20.00;14.73;;;;;;;21.16;70.29;98248.34;4900258;29;20173;-88
2022/08/20 02:47:26;;;;;;;18.30;14.23;;;;;;;21.86;70.91;98355.28;4900085;29;20214;-89
2022/08/20 02:49:54;;;;;;;18.40;14.87;;;;;;;21.58;69.45;98295.69;4916937;29;20225;-88
2022/08/20 02:52:20;;;;;;;20.93;14.97;;;;;;;21.53;69.49;98313.81;4899817;29;20257;-88
2022/08/20 02:54:49;;;;;;;23.20;14.93;;;;;;;20.51;69.35;98126.78;4899864;29;20229;-88
2022/08/20 02:57:21;;;;;;;19.80;15.20;;;;;;;22.92;69.05;98543.31;4917237;29;20225;-88
2022/08/20 02:59:48;;;;;;;22.07;15.63;;;;;;;21.20;67.88;98241.44;4897627;29;20431;-87
2022/08/20 03:02:14;;;;;;;19.77;15.53;;;;;;;21.70;67.64;98298.03;4917340;29;20627;-87
2022/08/20 03:04:43;;;;;;;19.77;15.50;;;;;;;21.19;68.44;98227.72;4917543;29;20662;-87
2022/08/20 03:07:10;;;;;;;18.23;14.50;;;;;;;23.26;70.00;98610.66;4900417;29;20229;-87
2022/08/20 03:09:36;;;;;;;20.87;15.23;;;;;;;22.36;70.22;98460.94;4900146;29;20178;-86
2022/08/20 03:12:03;;;;;;;17.63;14.77;;;;;;;21.75;69.43;98317.66;4900501;29;20254;-87
2022/08/20 03:14:28;;;;;;;19.77;15.10;;;;;;;22.48;70.24;98458.13;4900128;29;20206;-87
2022/08/20 03:16:54;;;;;;;19.10;14.63;;;;;;;20.91;69.99;98174.97;4900313;29;20182;-87
2022/08/20 03:19:20;;;;;;;23.03;15.40;;;;;;;21.78;70.12;98335.66;4900126;29;20714;-87
2022/08/20 03:21:46;;;;;;;33.47;16.63;;;;;;;22.57;70.25;98457.97;4899969;29;20182;-86
2022/08/20 03:24:12;;;;;;;31.43;15.83;;;;;;;24.25;70.02;98745.66;4899867;29;20186;-87
2022/08/20 03:26:37;;;;;;;21.73;14.90;;;;;;;20.47;67.82;98130.28;4900005;29;20182;-87
2022/08/20 03:29:03;;;;;;;33.47;15.93;;;;;;;22.03;67.78;98361.03;4899989;29;20285;-87
2022/08/20 03:31:29;;;;;;;31.93;15.97;;;;;;;24.03;67.49;98691.75;4917020;29;20553;-87
2022/08/20 03:33:54;;;;;;;31.77;16.83;;;;;;;21.11;69.78;98227.84;4916619;29;20206;-87
2022/08/20 03:36:22;;;;;;;24.07;16.40;;;;;;;21.22;70.23;98235.38;4899646;29;20175;-87
2022/08/20 03:38:48;;;;;;;25.00;15.57;;;;;;;19.75;70.62;98014.03;4899663;29;20178;-87
2022/08/20 03:41:17;;;;;;;25.83;16.10;;;;;;;22.28;70.95;98453.34;4916516;29;20591;-87
2022/08/20 03:43:43;;;;;;;26.53;17.07;;;;;;;20.36;69.77;98131.31;4916632;29;20210;-88
2022/08/20 03:46:09;;;;;;;26.93;17.03;;;;;;;22.67;70.23;98520.59;4899493;29;20246;-88
2022/08/20 03:48:35;;;;;;;27.67;17.30;;;;;;;21.07;70.08;98264.78;4916539;29;20778;-90
2022/08/20 03:51:00;;;;;;;29.93;17.40;;;;;;;20.50;70.34;98204.78;4899485;29;20174;-88
2022/08/20 03:53:30;;;;;;;29.33;17.27;;;;;;;21.99;70.90;98467.63;4899333;29;21059;-89
2022/08/20 03:55:59;;;;;;;27.53;17.50;;;;;;;23.64;71.61;98752.06;4899615;29;20570;-90
2022/08/20 03:58:28;;;;;;;22.50;16.30;;;;;;;20.08;72.31;98196.81;4916570;29;20170;-90
2022/08/20 04:00:54;;;;;;;24.97;16.53;;;;;;;20.44;72.59;98222.88;4901492;29;20647;-88
2022/08/20 04:03:21;;;;;;;25.73;17.20;;;;;;;20.38;73.25;98276.94;4903696;29;20219;-89
2022/08/20 04:05:48;;;;;;;20.07;15.40;;;;;;;22.08;73.09;98537.09;4926464;29;20249;-90
2022/08/20 04:08:17;;;;;;;21.60;15.77;;;;;;;20.87;73.62;98358.59;4914410;29;20197;-89
2022/08/20 04:10:44;;;;;;;69.43;50.73;;;;;;;19.28;73.34;98058.28;4916469;29;20198;-89
2022/08/20 04:13:09;;;;;;;94.50;65.17;;;;;;;21.49;73.28;98425.47;4916056;29;20167;-89
2022/08/20 04:15:36;;;;;;;40.60;28.37;;;;;;;20.36;73.06;98187.84;4899303;29;20281;-91
2022/08/20 04:18:05;;;;;;;27.83;20.57;;;;;;;22.46;72.74;98539.00;4898836;29;20181;-89
2022/08/20 04:20:30;;;;;;;39.27;18.90;;;;;;;23.27;73.64;98673.47;4916445;29;20257;-89
2022/08/20 04:22:56;;;;;;;30.07;16.77;;;;;;;23.75;74.27;98764.78;4915721;29;20205;-91
2022/08/20 04:25:22;;;;;;;23.87;16.53;;;;;;;23.71;74.66;98766.56;4880236;29;20186;-85
2022/08/20 04:27:51;;;;;;;32.77;17.67;;;;;;;23.57;74.50;98734.94;4896654;29;20571;-87
2022/08/20 04:30:20;;;;;;;24.10;16.50;;;;;;;21.71;74.25;98431.97;4896622;29;20651;-88
2022/08/20 04:32:45;;;;;;;36.43;17.30;;;;;;;21.68;74.26;98415.72;4896798;29;20178;-86
2022/08/20 04:35:19;;;;;;;24.73;16.47;;;;;;;23.79;73.05;98750.88;4897052;29;20198;-86
2022/08/20 04:37:46;;;;;;;28.20;16.87;;;;;;;21.52;72.03;98353.31;4896905;29;20167;-86
2022/08/20 04:43:03;;;;;;;24.00;16.97;;;;;;;22.21;70.35;98438.03;4903984;29;20226;-83
2022/08/20 04:45:31;;;;;;;27.90;17.43;;;;;;;24.36;70.18;98770.44;4897775;29;20185;-84
2022/08/20 04:47:56;;;;;;;25.30;16.53;;;;;;;24.46;69.45;98765.91;4880068;29;20230;-84
2022/08/20 04:50:22;;;;;;;27.57;17.47;;;;;;;24.34;68.41;98710.09;4896748;29;20230;-86
2022/08/20 04:52:48;;;;;;;22.93;16.40;;;;;;;22.93;68.98;98477.06;4896633;29;20638;-84
2022/08/20 04:55:15;;;;;;;22.87;16.67;;;;;;;22.97;68.40;98454.59;4880190;29;20202;-84
2022/08/20 04:57:42;;;;;;;26.07;17.10;;;;;;;24.67;68.61;98780.94;4897099;29;20197;-84
2022/08/20 05:00:14;;;;;;;22.63;16.63;;;;;;;22.52;67.77;98377.25;4896956;29;20253;-84
2022/08/20 05:02:40;;;;;;;25.63;17.80;;;;;;;24.90;68.36;98768.34;4912259;29;20317;-86
2022/08/20 05:05:07;;;;;;;26.83;17.53;;;;;;;24.86;69.22;98761.53;4904360;29;20251;-84
2022/08/20 05:07:39;;;;;;;29.37;17.50;;;;;;;23.10;68.62;98453.47;4926972;29;20185;-85
2022/08/20 05:10:06;;;;;;;25.73;17.73;;;;;;;25.11;68.79;98757.44;4903077;29;20309;-85
2022/08/20 05:12:31;;;;;;;25.10;17.37;;;;;;;24.59;68.34;98658.59;4915357;29;20265;-85
2022/08/20 05:14:57;;;;;;;24.80;17.90;;;;;;;24.57;67.35;98644.84;4915122;29;20276;-84
2022/08/20 05:17:23;;;;;;;21.00;16.33;;;;;;;25.37;66.68;98776.69;4915315;29;20163;-88
2022/08/20 05:19:50;;;;;;;20.57;16.60;;;;;;;24.77;66.07;98655.56;4898540;29;20170;-85
2022/08/20 05:22:17;;;;;;;28.07;17.50;;;;;;;23.83;65.38;98484.53;4898283;29;20544;-84
2022/08/20 05:24:42;;;;;;;22.70;16.80;;;;;;;22.48;65.19;98267.25;4915554;29;20162;-84
2022/08/20 05:27:08;;;;;;;23.10;17.00;;;;;;;25.06;65.71;98681.59;4919040;29;20184;-87
2022/08/20 05:29:34;;;;;;;24.97;17.60;;;;;;;22.70;65.46;98294.31;4919671;29;20181;-87
2022/08/20 05:32:00;;;;;;;23.33;17.30;;;;;;;23.87;64.40;98470.63;4902031;29;20173;-85
2022/08/20 05:34:25;;;;;;;24.03;17.87;;;;;;;25.06;63.80;98641.88;4919448;29;20713;-84
2022/08/20 05:36:51;;;;;;;21.97;17.10;;;;;;;25.43;63.53;98693.59;4902310;29;20178;-83
2022/08/20 05:39:19;;;;;;;28.40;17.87;;;;;;;24.25;63.91;98495.59;4918416;29;20238;-86
2022/08/20 05:42:03;;;;;;;23.47;17.43;;;;;;;23.83;62.78;98395.78;4902831;29;20214;-84
2022/08/20 05:44:28;;;;;;;25.63;17.27;;;;;;;24.03;62.33;98422.81;4916063;29;20184;-84
2022/08/20 05:46:54;;;;;;;25.77;18.37;;;;;;;25.52;61.62;98657.09;4918544;29;20249;-85
2022/08/20 05:49:20;;;;;;;22.93;16.63;;;;;;;22.63;60.42;98150.84;4918902;29;20213;-85
2022/08/20 05:51:48;;;;;;;23.17;17.17;;;;;;;24.27;60.40;98389.47;4901785;29;20261;-84
2022/08/20 05:54:14;;;;;;;23.40;17.33;;;;;;;25.47;59.24;98550.06;4918405;29;20225;-84
2022/08/20 05:56:42;;;;;;;26.95;17.77;;;;;;;23.32;59.65;98201.59;4915396;29;20197;-84
2022/08/20 05:59:12;;;;;;;23.23;18.40;;;;;;;24.01;59.32;98321.16;4901170;29;20178;-85
2022/08/20 06:01:40;;;;;;;27.15;17.95;;;;;;;23.62;58.08;98216.28;4901554;29;20275;-85
2022/08/20 06:04:28;;;;;;;26.17;16.90;;;;;;;23.93;57.05;98239.53;4918812;29;20176;-85
2022/08/20 06:07:04;;;;;;;26.92;17.80;;;;;;;27.35;56.25;98763.84;4903128;29;20263;-83
2022/08/20 06:09:35;;;;;;;22.83;17.13;;;;;;;24.41;55.17;98232.97;4916142;29;20251;-86
2022/08/20 06:12:04;;;;;;;24.42;16.50;;;;;;;25.37;54.62;98398.31;4900647;29;20188;-85
2022/08/20 06:14:31;;;;;;;24.02;17.08;;;;;;;26.47;54.36;98560.72;4916951;29;20220;-84
2022/08/20 06:17:08;;;;;;;22.35;16.83;;;;;;;24.44;53.58;98209.59;4902831;29;20339;-84
2022/08/20 06:19:34;;;;;;;23.13;15.48;;;;;;;24.81;50.76;98206.69;4917791;29;20194;-86
2022/08/20 06:22:05;;;;;;;18.63;15.18;;;;;;;26.17;50.76;98413.84;4917788;29;20168;-87
2022/08/20 06:24:31;;;;;;;19.98;15.05;;;;;;;25.37;50.42;98312.78;4900995;29;20184;-86
2022/08/20 06:26:59;;;;;;;19.83;14.60;;;;;;;28.26;50.48;98742.41;4919479;29;20167;-86
2022/08/20 06:29:26;;;;;;;19.13;14.70;;;;;;;25.95;49.65;98296.13;4900215;29;20248;-84
2022/08/20 06:31:51;;;;;;;19.05;15.25;;;;;;;25.33;49.90;98192.00;4916498;29;20214;-87
2022/08/20 06:34:20;;;;;;;19.67;15.63;;;;;;;26.62;50.75;98424.31;4917703;29;20677;-84
2022/08/20 06:36:49;;;;;;;19.38;15.50;;;;;;;25.95;49.78;98244.25;4901038;29;20188;-84
2022/08/20 06:39:14;;;;;;;20.70;15.52;;;;;;;28.48;50.75;98732.84;4918909;29;20258;-87
2022/08/20 06:41:41;;;;;;;22.67;16.90;;;;;;;28.65;50.74;98746.06;4901988;29;20188;-85
2022/08/20 06:44:07;;;;;;;19.80;15.60;;;;;;;25.66;51.22;98255.66;4901004;29;20566;-85
2022/08/20 06:46:34;;;;;;;23.98;16.98;;;;;;;27.15;50.75;98479.53;4900910;29;20176;-84
2022/08/20 06:49:00;;;;;;;24.65;16.35;;;;;;;28.34;50.20;98630.97;4918113;29;20224;-85
2022/08/20 06:51:25;;;;;;;19.65;15.88;;;;;;;27.20;50.30;98423.88;4918386;29;20178;-85
2022/08/20 06:53:51;;;;;;;22.30;16.10;;;;;;;26.42;50.69;98367.94;4919747;29;20331;-86
2022/08/20 06:56:16;;;;;;;23.13;16.08;;;;;;;27.04;51.01;98430.56;4919063;29;20171;-86
2022/08/20 06:58:42;;;;;;;20.88;15.82;;;;;;;28.34;50.92;98630.97;4919737;29;20181;-85
2022/08/20 07:01:10;;;;;;;22.90;16.15;;;;;;;27.68;50.06;98473.13;4902344;29;20626;-85
2022/08/20 07:03:38;;;;;;;21.88;15.40;;;;;;;27.63;48.97;98459.47;4919485;29;20242;-85
2022/08/20 07:06:03;;;;;;;21.50;15.32;;;;;;;26.96;49.37;98365.06;4922057;29;20205;-85
2022/08/20 07:08:29;;;;;;;23.42;16.05;;;;;;;28.23;48.77;98539.44;4937149;29;20592;-85
2022/08/20 07:10:54;;;;;;;21.13;14.77;;;;;;;27.46;48.97;98418.53;4938084;29;20176;-84
2022/08/20 07:13:20;;;;;;;20.88;15.52;;;;;;;27.36;48.68;98372.97;4937742;29;20185;-85
2022/08/20 07:15:45;;;;;;;19.42;15.35;;;;;;;28.42;48.30;98475.25;4937906;29;20194;-85
2022/08/20 07:18:12;;;;;;;21.90;15.27;;;;;;;30.15;47.98;98747.47;4925589;29;20714;-86
2022/08/20 07:20:39;;;;;;;19.88;15.52;;;;;;;27.00;47.81;98186.53;4917537;29;20174;-86
2022/08/20 07:23:06;;;;;;;18.02;14.63;;;;;;;28.54;47.64;98437.44;4900404;29;20666;-87
2022/08/20 07:25:32;;;;;;;22.88;15.10;;;;;;;29.25;47.21;98513.25;4917204;29;20166;-85
2022/08/20 07:28:11;;;;;;;23.52;15.48;;;;;;;29.09;46.49;98428.00;4917720;29;20240;-86
2022/08/20 07:33:21;;;;;;;21.27;15.30;;;;;;;29.79;46.30;98567.28;4917425;29;20196;-86
2022/08/20 07:35:47;;;;;;;18.65;15.75;;;;;;;30.76;46.23;98727.19;4900049;29;20216;-86
2022/08/20 07:38:23;;;;;;;20.05;15.75;;;;;;;30.27;47.47;98670.34;4917440;29;20160;-85
2022/08/20 07:40:50;;;;;;;21.73;15.52;;;;;;;30.75;46.30;98696.72;4917214;29;20177;-87
2022/08/20 07:43:15;;;;;;;18.60;15.75;;;;;;;29.96;45.78;98542.16;4916818;29;20182;-85
2022/08/20 07:45:41;;;;;;;20.00;15.82;;;;;;;30.22;44.86;98545.16;4916728;29;20168;-86
2022/08/20 07:48:10;;;;;;;17.80;14.88;;;;;;;30.13;44.15;98456.84;4918187;29;20240;-86
2022/08/20 07:50:36;;;;;;;22.05;16.15;;;;;;;30.66;45.59;98671.03;4919773;29;20314;-86
2022/08/20 07:53:01;;;;;;;19.48;15.52;;;;;;;30.97;45.22;98670.38;4916910;29;20257;-86
2022/08/20 07:55:27;;;;;;;20.60;16.10;;;;;;;30.28;45.09;98549.25;4916996;29;20207;-85
2022/08/20 07:57:52;;;;;;;20.42;16.00;;;;;;;30.34;44.25;98507.16;4917054;29;20180;-85
2022/08/20 08:00:22;;;;;;;20.83;15.60;;;;;;;31.89;43.82;98712.63;4900392;29;20188;-85
2022/08/20 08:02:47;;;;;;;23.05;16.85;;;;;;;29.78;44.23;98371.59;4917092;29;20177;-86
2022/08/20 08:05:14;;;;;;;18.88;15.10;;;;;;;31.91;43.28;98702.94;4916542;29;20256;-86
2022/08/20 08:07:41;;;;;;;18.20;15.07;;;;;;;30.64;43.50;98496.94;4916358;29;20177;-85
2022/08/20 08:10:08;;;;;;;17.38;15.23;;;;;;;31.15;43.94;98569.22;4916702;29;20170;-85
2022/08/20 08:12:39;;;;;;;30.02;20.10;;;;;;;31.66;44.50;98639.75;4916887;29;20184;-87
2022/08/20 08:15:08;;;;;;;18.98;15.40;;;;;;;29.78;43.28;98264.59;4916478;29;20197;-86
2022/08/20 08:17:36;;;;;;;19.92;15.30;;;;;;;30.14;44.55;98400.22;4899676;29;20271;-86
2022/08/20 08:20:04;;;;;;;17.55;14.82;;;;;;;30.47;43.49;98348.88;4921274;29;20172;-86
2022/08/20 08:22:31;;;;;;;17.75;15.40;;;;;;;31.96;44.17;98686.97;4921879;29;20181;-86
2022/08/20 08:25:00;;;;;;;18.20;15.02;;;;;;;30.69;43.37;98453.09;4899629;29;20646;-88
2022/08/20 08:27:31;;;;;;;18.42;15.63;;;;;;;32.09;43.02;98583.25;4900208;29;20174;-86
2022/08/20 08:29:58;;;;;;;19.13;14.60;;;;;;;31.49;42.45;98488.84;4899585;29;20186;-86
2022/08/20 08:32:24;;;;;;;19.42;14.20;;;;;;;31.85;42.43;98554.03;4916249;29;20228;-86
2022/08/20 08:34:50;;;;;;;21.27;15.15;;;;;;;32.47;43.36;98662.31;4915952;29;20201;-85
2022/08/20 08:37:15;;;;;;;17.02;14.90;;;;;;;31.32;43.03;98483.66;4916097;29;20249;-85
2022/08/20 08:39:42;;;;;;;20.48;14.43;;;;;;;32.75;43.10;98674.69;4915837;29;20197;-86
2022/08/20 08:42:27;;;;;;;18.02;14.15;;;;;;;32.88;42.51;98645.06;4915879;29;20170;-85
2022/08/20 08:44:53;;;;;;;19.33;14.98;;;;;;;32.77;42.97;98652.72;4899526;29;20308;-85
2022/08/20 08:47:29;;;;;;;17.75;13.70;;;;;;;33.06;42.02;98590.69;4915768;29;20214;-87
2022/08/20 08:49:56;;;;;;;16.02;14.35;;;;;;;33.62;41.43;98642.38;4916264;29;20269;-84
2022/08/20 08:52:28;;;;;;;21.38;13.73;;;;;;;33.33;40.79;98565.38;4915742;29;20181;-84
2022/08/20 08:54:58;;;;;;;15.65;13.73;;;;;;;33.06;41.06;98501.50;4916062;29;20230;-86
2022/08/20 08:57:25;;;;;;;14.38;12.90;;;;;;;33.61;40.29;98611.81;4903671;29;20198;-86
2022/08/20 09:00:00;;;;;;;16.55;13.88;;;;;;;33.57;40.96;98639.22;4921177;29;20166;-87
2022/08/20 09:02:28;;;;;;;16.20;12.90;;;;;;;32.07;40.91;98341.53;4921461;29;20262;-87
2022/08/20 09:04:55;;;;;;;13.75;12.30;;;;;;;33.43;40.66;98573.56;4922094;29;20170;-87
2022/08/20 09:07:23;;;;;;;15.48;12.40;;;;;;;32.63;39.92;98390.53;4922327;29;20267;-86
2022/08/20 09:09:49;;;;;;;15.70;12.50;;;;;;;33.72;39.61;98531.41;4905910;29;20181;-87
2022/08/20 09:12:21;;;;;;;17.90;12.82;;;;;;;33.34;39.39;98464.72;4915275;29;20177;-85
2022/08/20 09:14:50;;;;;;;16.27;12.73;;;;;;;33.08;39.18;98395.53;4896265;29;20611;-85
2022/08/20 09:17:21;;;;;;;15.30;12.15;;;;;;;32.73;40.21;98409.97;4898197;29;20201;-84
2022/08/20 09:19:49;;;;;;;15.32;12.05;;;;;;;34.00;39.71;98630.31;4915414;29;20189;-84
2022/08/20 09:22:18;;;;;;;14.43;12.30;;;;;;;34.04;39.44;98592.38;4915503;29;20615;-84
2022/08/20 09:24:44;;;;;;;15.70;12.68;;;;;;;32.21;38.75;98186.13;4915120;29;20170;-85
2022/08/20 09:27:10;;;;;;;16.92;12.48;;;;;;;31.87;39.61;98182.97;4915335;29;20210;-84
2022/08/20 09:29:35;;;;;;;15.70;12.65;;;;;;;31.75;38.52;98123.53;4915115;29;20174;-84
2022/08/20 09:32:10;;;;;;;14.45;12.00;;;;;;;34.51;37.36;98496.41;4915768;29;20174;-85
2022/08/20 09:34:39;;;;;;;15.80;11.52;;;;;;;34.99;36.88;98545.72;4915496;29;20236;-85
2022/08/20 09:37:04;;;;;;;17.70;11.70;;;;;;;34.79;36.72;98512.03;4899707;29;20185;-84
2022/08/20 09:39:30;;;;;;;14.32;12.20;;;;;;;32.98;37.90;98299.97;4901155;29;20170;-84
2022/08/20 09:42:12;;;;;;;14.38;12.23;;;;;;;34.08;37.64;98445.91;4924358;29;20227;-83
2022/08/20 09:44:39;;;;;;;14.27;11.65;;;;;;;34.86;36.92;98508.88;4926468;29;20667;-84
2022/08/20 09:47:05;;;;;;;16.42;12.45;;;;;;;34.25;37.75;98514.81;4915759;29;20690;-83
2022/08/20 09:49:30;;;;;;;15.73;11.55;;;;;;;33.29;37.91;98345.25;4915182;29;20246;-84
2022/08/20 09:51:58;;;;;;;14.15;11.88;;;;;;;33.09;38.26;98326.41;4915388;29;20273;-84
2022/08/20 09:54:28;;;;;;;15.45;11.38;;;;;;;33.90;37.12;98395.41;4914864;29;20683;-85
2022/08/20 09:56:57;;;;;;;14.35;12.18;;;;;;;35.09;36.98;98520.47;4898720;29;20178;-84
2022/08/20 09:59:23;;;;;;;14.05;12.32;;;;;;;34.04;37.29;98345.41;4925628;29;20170;-84
2022/08/20 10:01:49;;;;;;;13.80;11.90;;;;;;;34.83;37.68;98516.16;4921734;29;20174;-84
2022/08/20 10:04:14;;;;;;;18.95;12.45;;;;;;;34.62;38.05;98501.81;4918617;29;20623;-83
2022/08/20 10:06:40;;;;;;;14.13;12.50;;;;;;;33.99;37.20;98344.88;4899486;29;20182;-84
2022/08/20 10:09:05;;;;;;;15.27;12.38;;;;;;;35.63;36.37;98522.81;4915562;29;20182;-84
2022/08/20 10:11:31;;;;;;;15.13;12.45;;;;;;;36.00;35.94;98556.91;4899382;29;20189;-85
2022/08/20 10:13:57;;;;;;;12.90;11.60;;;;;;;35.72;35.63;98545.81;4919284;29;20218;-85
2022/08/20 10:16:23;;;;;;;18.15;12.15;;;;;;;35.02;37.33;98560.44;4902248;29;20579;-86
2022/08/20 10:18:48;;;;;;;14.02;11.98;;;;;;;33.07;37.25;98246.94;4902012;29;20186;-86
2022/08/20 10:21:14;;;;;;;14.25;12.13;;;;;;;34.85;37.32;98499.31;4919029;29;20771;-84
2022/08/20 10:23:40;;;;;;;17.10;12.40;;;;;;;35.34;37.55;98552.03;4918510;29;20245;-86
2022/08/20 10:26:07;;;;;;;17.65;12.77;;;;;;;33.91;36.91;98349.81;4919238;29;20174;-85
2022/08/20 10:28:33;;;;;;;13.73;12.30;;;;;;;34.86;37.12;98455.44;4923111;29;20310;-84
2022/08/20 10:30:59;;;;;;;15.70;12.50;;;;;;;33.99;36.43;98252.94;4918160;29;20546;-84
2022/08/20 10:33:24;;;;;;;17.83;12.50;;;;;;;35.84;36.75;98544.94;4918137;29;20178;-85
2022/08/20 10:35:50;;;;;;;18.60;13.23;;;;;;;35.78;35.92;98506.72;4901151;29;20213;-85
2022/08/20 10:38:15;;;;;;;16.00;12.55;;;;;;;35.08;36.32;98363.50;4918958;29;20171;-83
2022/08/20 10:40:41;;;;;;;15.70;12.55;;;;;;;35.04;35.98;98332.25;4900985;29;20654;-83
2022/08/20 10:43:06;;;;;;;15.77;12.25;;;;;;;36.44;35.62;98529.03;4918065;29;20171;-85
2022/08/20 10:45:32;;;;;;;13.35;11.68;;;;;;;36.10;35.03;98478.00;4917567;29;20181;-84
2022/08/20 10:48:00;;;;;;;16.58;12.18;;;;;;;36.43;35.52;98522.94;4917999;29;20217;-83
2022/08/20 10:50:26;;;;;;;13.18;11.77;;;;;;;36.57;35.19;98514.84;4917597;29;20678;-85
2022/08/20 10:52:52;;;;;;;14.98;11.57;;;;;;;36.01;35.03;98454.97;4917644;29;20166;-86
2022/08/20 10:55:17;;;;;;;13.35;11.88;;;;;;;33.62;35.95;98077.91;4918218;29;20898;-83
2022/08/20 10:57:43;;;;;;;17.17;11.02;;;;;;;34.50;34.89;98237.94;4923232;29;20169;-84
2022/08/20 11:00:13;;;;;;;14.95;11.00;;;;;;;35.10;34.84;98369.53;4902723;29;20209;-85
2022/08/20 11:02:38;;;;;;;13.20;11.10;;;;;;;34.70;34.62;98299.63;4917830;29;20560;-84
2022/08/20 11:05:05;;;;;;;13.82;10.75;;;;;;;36.31;34.37;98492.22;4900644;29;20179;-85
2022/08/20 11:07:37;;;;;;;13.77;10.63;;;;;;;36.34;33.46;98470.91;4917679;29;20682;-84
2022/08/20 11:10:05;;;;;;;11.88;10.15;;;;;;;36.46;33.25;98479.66;4917617;29;20714;-84
2022/08/20 11:12:30;;;;;;;12.98;9.98;;;;;;;35.15;33.91;98304.22;4917458;29;20599;-85
2022/08/20 11:14:56;;;;;;;13.18;9.65;;;;;;;34.90;33.49;98267.47;4918202;29;20198;-83
2022/08/20 11:17:24;;;;;;;12.77;9.80;;;;;;;36.26;33.45;98467.16;4917923;29;20170;-83
2022/08/20 11:19:50;;;;;;;12.45;9.55;;;;;;;35.89;33.05;98438.25;4917435;29;20281;-85
2022/08/20 11:22:16;;;;;;;12.93;9.52;;;;;;;36.29;33.60;98473.03;4917517;29;20639;-84
2022/08/20 11:24:41;;;;;;;11.70;9.70;;;;;;;36.59;32.25;98449.59;4916048;29;20214;-84
2022/08/20 11:27:08;;;;;;;11.77;9.45;;;;;;;35.61;32.70;98328.00;4916848;29;20170;-84